createdAt,value
2018-04-25T00:00:37.919Z,80.22
2018-04-25T00:01:38.121Z,80.57
2018-04-25T00:02:38.340Z,80.76
2018-04-25T00:03:38.561Z,80.66
2018-04-25T00:04:41.579Z,80.57
2018-04-25T00:05:38.930Z,80.66
2018-04-25T00:06:39.147Z,80.19
2018-04-25T00:07:39.352Z,80.19
2018-04-25T00:08:39.583Z,79.90
2018-04-25T00:09:39.793Z,80.57
2018-04-25T00:10:39.995Z,80.28
2018-04-25T00:11:40.226Z,80.38
2018-04-25T00:12:40.432Z,80.47
2018-04-25T00:13:42.573Z,80.85
2018-04-25T00:14:40.780Z,80.85
2018-04-25T00:15:40.988Z,81.14
2018-04-25T00:16:43.074Z,81.14
2018-04-25T00:17:41.417Z,81.14
2018-04-25T00:18:41.624Z,80.76
2018-04-25T00:19:41.842Z,81.33
2018-04-25T00:20:42.042Z,81.62
2018-04-25T00:21:42.267Z,81.58
2018-04-25T00:22:42.487Z,81.58
2018-04-25T00:23:42.689Z,81.77
2018-04-25T00:24:42.902Z,82.34
2018-04-25T00:25:43.117Z,82.53
2018-04-25T00:26:43.326Z,82.53
2018-04-25T00:27:43.541Z,83.11
2018-04-25T00:28:45.579Z,83.11
2018-04-25T00:29:43.907Z,83.29
2018-04-25T00:30:44.139Z,83.11
2018-04-25T00:31:44.341Z,82.34
2018-04-25T00:32:44.546Z,82.34
2018-04-25T00:33:44.762Z,82.43
2018-04-25T00:34:46.577Z,82.82
2018-04-25T00:35:45.154Z,82.34
2018-04-25T00:36:45.374Z,82.24
2018-04-25T00:37:45.603Z,82.06
2018-04-25T00:38:45.807Z,81.77
2018-04-25T00:39:49.577Z,82.24
2018-04-25T00:40:46.163Z,82.15
2018-04-25T00:41:46.389Z,82.53
2018-04-25T00:42:46.596Z,82.15
2018-04-25T00:43:46.814Z,82.72
2018-04-25T00:44:48.573Z,82.63
2018-04-25T00:45:47.235Z,83.01
2018-04-25T00:46:47.377Z,82.91
2018-04-25T00:47:47.587Z,82.91
2018-04-25T00:48:47.795Z,82.82
2018-04-25T00:49:48.014Z,82.63
2018-04-25T00:50:48.255Z,82.63
2018-04-25T00:51:48.447Z,82.63
2018-04-25T00:52:48.665Z,82.82
2018-04-25T00:53:50.579Z,83.87
2018-04-25T00:54:49.043Z,83.58
2018-04-25T00:55:49.262Z,83.58
2018-04-25T00:56:49.467Z,83.48
2018-04-25T00:57:49.690Z,83.11
2018-04-25T00:58:49.900Z,83.01
2018-04-25T00:59:52.093Z,83.39
2018-04-25T01:00:50.291Z,83.58
2018-04-25T01:01:50.502Z,82.91
2018-04-25T01:02:53.019Z,83.48
2018-04-25T01:03:50.873Z,83.58
2018-04-25T01:04:51.088Z,84.49
2018-04-25T01:05:51.302Z,84.20
2018-04-25T01:06:51.521Z,84.78
2018-04-25T01:07:51.725Z,84.49
2018-04-25T01:08:51.936Z,84.69
2018-04-25T01:09:52.143Z,84.78
2018-04-25T01:10:52.399Z,84.69
2018-04-25T01:11:52.674Z,85.16
2018-04-25T01:12:52.797Z,84.97
2018-04-25T01:13:53.014Z,85.35
2018-04-25T01:14:53.226Z,84.97
2018-04-25T01:15:53.431Z,85.16
2018-04-25T01:16:53.665Z,84.88
2018-04-25T01:17:53.874Z,85.45
2018-04-25T01:18:54.071Z,85.73
2018-04-25T01:19:54.282Z,86.11
2018-04-25T01:20:54.488Z,86.16
2018-04-25T01:21:54.697Z,86.36
2018-04-25T01:22:54.914Z,86.36
2018-04-25T01:23:55.127Z,86.26
2018-04-25T01:24:58.082Z,86.07
2018-04-25T01:25:55.547Z,87.21
2018-04-25T01:26:55.757Z,87.21
2018-04-25T01:27:55.977Z,87.60
2018-04-25T01:28:56.188Z,87.40
2018-04-25T01:29:56.394Z,87.21
2018-04-25T01:30:56.612Z,87.21
2018-04-25T01:31:56.827Z,87.02
2018-04-25T01:32:57.041Z,87.21
2018-04-25T01:33:57.257Z,87.35
2018-04-25T01:34:57.478Z,86.83
2018-04-25T01:35:57.705Z,87.21
2018-04-25T01:36:57.912Z,86.98
2018-04-25T01:37:58.117Z,86.88
2018-04-25T01:38:58.333Z,87.54
2018-04-25T01:39:58.543Z,86.88
2018-04-25T01:40:58.752Z,86.98
2018-04-25T01:41:58.971Z,86.98
2018-04-25T01:42:59.178Z,86.88
2018-04-25T01:44:01.079Z,86.40
2018-04-25T01:44:59.544Z,86.40
2018-04-25T01:45:59.749Z,86.69
2018-04-25T01:46:59.964Z,86.69
2018-04-25T01:48:00.186Z,86.69
2018-04-25T01:49:00.395Z,86.55
2018-04-25T01:50:00.613Z,86.69
2018-04-25T01:51:00.837Z,86.21
2018-04-25T01:52:01.034Z,86.40
2018-04-25T01:53:03.086Z,86.65
2018-04-25T01:54:01.428Z,86.74
2018-04-25T01:55:01.642Z,86.93
2018-04-25T01:56:01.854Z,86.83
2018-04-25T01:57:02.066Z,87.12
2018-04-25T01:58:04.077Z,86.83
2018-04-25T01:59:02.411Z,86.65
2018-04-25T02:00:02.628Z,86.83
2018-04-25T02:01:02.890Z,87.21
2018-04-25T02:02:03.048Z,87.40
2018-04-25T02:03:03.262Z,87.69
2018-04-25T02:04:03.489Z,88.17
2018-04-25T02:05:03.687Z,88.17
2018-04-25T02:06:03.907Z,87.69
2018-04-25T02:07:06.076Z,88.07
2018-04-25T02:08:04.291Z,88.55
2018-04-25T02:09:04.505Z,88.26
2018-04-25T02:10:04.711Z,88.74
2018-04-25T02:11:04.916Z,88.26
2018-04-25T02:12:05.145Z,88.36
2018-04-25T02:13:05.348Z,88.45
2018-04-25T02:14:05.560Z,88.36
2018-04-25T02:15:05.776Z,88.26
2018-04-25T02:16:05.980Z,88.64
2018-04-25T02:17:06.190Z,88.89
2018-04-25T02:18:06.417Z,89.17
2018-04-25T02:19:08.585Z,89.07
2018-04-25T02:20:06.804Z,89.55
2018-04-25T02:21:07.023Z,89.55
2018-04-25T02:22:07.228Z,89.36
2018-04-25T02:23:11.076Z,89.65
2018-04-25T02:24:07.654Z,89.55
2018-04-25T02:25:07.895Z,89.26
2018-04-25T02:26:08.073Z,89.26
2018-04-25T02:27:08.290Z,89.84
2018-04-25T02:28:08.498Z,89.46
2018-04-25T02:29:08.726Z,89.17
2018-04-25T02:30:08.930Z,88.98
2018-04-25T02:31:09.143Z,90.12
2018-04-25T02:32:12.083Z,90.12
2018-04-25T02:33:09.544Z,89.46
2018-04-25T02:34:09.772Z,89.65
2018-04-25T02:35:09.962Z,89.65
2018-04-25T02:36:10.175Z,89.84
2018-04-25T02:37:12.081Z,90.60
2018-04-25T02:38:12.083Z,90.50
2018-04-25T02:39:10.683Z,90.60
2018-04-25T02:40:10.891Z,90.50
2018-04-25T02:41:11.101Z,90.22
2018-04-25T02:42:11.312Z,90.22
2018-04-25T02:43:11.525Z,90.36
2018-04-25T02:44:11.732Z,90.94
2018-04-25T02:45:11.947Z,90.41
2018-04-25T02:46:12.156Z,90.65
2018-04-25T02:47:14.081Z,90.36
2018-04-25T02:48:14.088Z,90.84
2018-04-25T02:49:12.666Z,91.41
2018-04-25T02:50:12.885Z,91.13
2018-04-25T02:51:13.092Z,91.03
2018-04-25T02:52:13.305Z,91.13
2018-04-25T02:53:13.563Z,91.31
2018-04-25T02:54:13.727Z,91.03
2018-04-25T02:55:15.580Z,91.51
2018-04-25T02:56:14.180Z,91.60
2018-04-25T02:57:14.387Z,91.51
2018-04-25T02:58:14.601Z,91.79
2018-04-25T02:59:14.827Z,91.89
2018-04-25T03:00:15.019Z,91.13
2018-04-25T03:01:15.231Z,91.13
2018-04-25T03:02:15.439Z,91.70
2018-04-25T03:03:15.648Z,92.08
2018-04-25T03:04:15.875Z,92.27
2018-04-25T03:05:16.073Z,92.18
2018-04-25T03:06:16.294Z,92.08
2018-04-25T03:07:16.524Z,92.08
2018-04-25T03:08:16.720Z,91.60
2018-04-25T03:09:16.942Z,91.70
2018-04-25T03:10:19.083Z,91.89
2018-04-25T03:11:17.291Z,91.99
2018-04-25T03:12:17.518Z,91.51
2018-04-25T03:13:17.765Z,91.79
2018-04-25T03:14:19.579Z,92.08
2018-04-25T03:15:20.089Z,91.79
2018-04-25T03:16:18.311Z,91.99
2018-04-25T03:17:18.531Z,91.99
2018-04-25T03:18:18.725Z,91.79
2018-04-25T03:19:20.590Z,91.89
2018-04-25T03:20:19.174Z,91.99
2018-04-25T03:21:19.396Z,92.46
2018-04-25T03:22:19.605Z,92.27
2018-04-25T03:23:21.580Z,92.18
2018-04-25T03:24:21.592Z,92.55
2018-04-25T03:25:20.170Z,92.36
2018-04-25T03:26:20.400Z,92.74
2018-04-25T03:27:20.607Z,92.27
2018-04-25T03:28:20.827Z,92.27
2018-04-25T03:29:21.041Z,92.18
2018-04-25T03:30:21.247Z,91.70
2018-04-25T03:31:21.466Z,92.08
2018-04-25T03:32:21.695Z,91.89
2018-04-25T03:33:21.895Z,91.99
2018-04-25T03:34:24.085Z,92.27
2018-04-25T03:35:22.297Z,91.51
2018-04-25T03:36:22.513Z,91.70
2018-04-25T03:37:22.733Z,91.70
2018-04-25T03:38:24.578Z,91.51
2018-04-25T03:39:25.080Z,91.89
2018-04-25T03:40:25.082Z,91.89
2018-04-25T03:41:23.438Z,91.89
2018-04-25T03:42:23.636Z,91.99
2018-04-25T03:43:23.842Z,90.84
2018-04-25T03:44:24.058Z,91.36
2018-04-25T03:45:24.286Z,90.98
2018-04-25T03:46:24.380Z,90.75
2018-04-25T03:47:24.606Z,91.13
2018-04-25T03:48:24.822Z,90.94
2018-04-25T03:49:25.029Z,91.79
2018-04-25T03:50:25.282Z,91.13
2018-04-25T03:51:25.479Z,90.84
2018-04-25T03:52:27.587Z,91.79
2018-04-25T03:53:25.933Z,91.51
2018-04-25T03:54:26.146Z,92.27
2018-04-25T03:55:26.354Z,92.08
2018-04-25T03:56:26.566Z,91.70
2018-04-25T03:57:28.583Z,91.41
2018-04-25T03:58:28.594Z,91.60
2018-04-25T03:59:27.053Z,91.70
2018-04-25T04:00:27.256Z,91.89
2018-04-25T04:01:27.473Z,91.99
2018-04-25T04:02:27.682Z,92.08
2018-04-25T04:03:27.893Z,91.60
2018-04-25T04:04:28.110Z,92.27
2018-04-25T04:05:28.323Z,91.89
2018-04-25T04:06:30.086Z,92.27
2018-04-25T04:07:28.659Z,92.27
2018-04-25T04:08:28.860Z,92.36
2018-04-25T04:09:29.073Z,92.18
2018-04-25T04:10:29.284Z,92.94
2018-04-25T04:11:29.501Z,92.27
2018-04-25T04:12:29.721Z,92.36
2018-04-25T04:13:29.931Z,92.27
2018-04-25T04:14:30.147Z,92.84
2018-04-25T04:15:30.362Z,92.27
2018-04-25T04:16:30.565Z,92.65
2018-04-25T04:17:30.797Z,92.84
2018-04-25T04:18:32.583Z,92.84
2018-04-25T04:19:32.507Z,93.13
2018-04-25T04:20:33.080Z,93.13
2018-04-25T04:21:31.546Z,92.89
2018-04-25T04:22:36.584Z,92.89
2018-04-25T04:23:33.589Z,92.46
2018-04-25T04:24:32.044Z,92.50
2018-04-25T04:25:32.269Z,92.69
2018-04-25T04:26:32.486Z,92.32
2018-04-25T04:27:32.689Z,91.94
2018-04-25T04:28:32.891Z,92.13
2018-04-25T04:29:33.104Z,92.22
2018-04-25T04:30:33.318Z,92.13
2018-04-25T04:31:33.524Z,91.74
2018-04-25T04:32:33.728Z,92.13
2018-04-25T04:33:33.944Z,91.74
2018-04-25T04:34:34.161Z,91.50
2018-04-25T04:35:36.075Z,91.31
2018-04-25T04:36:34.537Z,90.84
2018-04-25T04:37:34.739Z,90.36
2018-04-25T04:38:34.946Z,90.55
2018-04-25T04:39:35.170Z,90.08
2018-04-25T04:40:35.375Z,89.50
2018-04-25T04:41:35.588Z,89.60
2018-04-25T04:42:35.796Z,89.69
2018-04-25T04:43:37.601Z,89.22
2018-04-25T04:44:36.186Z,89.03
2018-04-25T04:45:36.381Z,89.54
2018-04-25T04:46:40.580Z,89.36
2018-04-25T04:47:36.806Z,88.88
2018-04-25T04:48:37.017Z,88.50
2018-04-25T04:49:37.307Z,88.50
2018-04-25T04:50:39.082Z,88.50
2018-04-25T04:51:37.671Z,88.12
2018-04-25T04:52:37.880Z,87.93
2018-04-25T04:53:38.103Z,87.26
2018-04-25T04:54:38.323Z,87.35
2018-04-25T04:55:38.534Z,86.98
2018-04-25T04:56:40.594Z,87.26
2018-04-25T04:57:38.936Z,87.16
2018-04-25T04:58:39.159Z,88.02
2018-04-25T04:59:39.392Z,87.54
2018-04-25T05:00:39.581Z,86.69
2018-04-25T05:01:39.801Z,87.30
2018-04-25T05:02:40.019Z,87.59
2018-04-25T05:03:40.243Z,87.87
2018-04-25T05:04:40.456Z,88.26
2018-04-25T05:05:40.667Z,88.54
2018-04-25T05:06:40.881Z,88.45
2018-04-25T05:07:42.582Z,88.26
2018-04-25T05:08:57.080Z,87.97
2018-04-25T05:09:41.538Z,87.82
2018-04-25T05:10:41.771Z,86.87
2018-04-25T05:11:41.976Z,86.39
2018-04-25T05:12:42.200Z,86.10
2018-04-25T05:13:42.400Z,85.77
2018-04-25T05:14:42.611Z,85.38
2018-04-25T05:15:42.835Z,84.91
2018-04-25T05:16:43.034Z,84.52
2018-04-25T05:17:43.245Z,84.52
2018-04-25T05:18:43.466Z,84.33
2018-04-25T05:19:43.673Z,83.67
2018-04-25T05:20:43.890Z,83.00
2018-04-25T05:21:44.106Z,83.67
2018-04-25T05:22:44.322Z,83.76
2018-04-25T05:23:46.087Z,83.95
2018-04-25T05:24:44.764Z,82.84
2018-04-25T05:25:44.884Z,82.75
2018-04-25T05:26:45.094Z,82.46
2018-04-25T05:27:47.087Z,83.04
2018-04-25T05:28:45.431Z,82.94
2018-04-25T05:29:45.647Z,82.37
2018-04-25T05:30:45.841Z,83.23
2018-04-25T05:31:47.636Z,83.04
2018-04-25T05:32:48.096Z,82.28
2018-04-25T05:33:46.299Z,81.79
2018-04-25T05:34:46.523Z,82.08
2018-04-25T05:35:46.738Z,81.89
2018-04-25T05:36:46.940Z,81.60
2018-04-25T05:37:47.166Z,82.75
2018-04-25T05:38:47.389Z,82.18
2018-04-25T05:39:47.600Z,81.70
2018-04-25T05:40:47.824Z,81.45
2018-04-25T05:41:48.043Z,81.26
2018-04-25T05:42:48.256Z,80.98
2018-04-25T05:43:48.465Z,81.07
2018-04-25T05:44:50.583Z,81.26
2018-04-25T05:45:50.613Z,80.79
2018-04-25T05:46:48.924Z,80.59
2018-04-25T05:47:49.140Z,80.50
2018-04-25T05:48:49.344Z,80.79
2018-04-25T05:49:49.550Z,80.88
2018-04-25T05:50:49.775Z,80.69
2018-04-25T05:51:50.011Z,80.69
2018-04-25T05:52:50.213Z,80.88
2018-04-25T05:53:50.458Z,80.21
2018-04-25T05:54:50.652Z,80.02
2018-04-25T05:55:50.874Z,80.30
2018-04-25T05:56:51.110Z,80.11
2018-04-25T05:57:51.428Z,79.64
2018-04-25T05:58:53.088Z,80.11
2018-04-25T05:59:51.684Z,80.11
2018-04-25T06:00:51.892Z,80.69
2018-04-25T06:01:52.120Z,80.59
2018-04-25T06:02:52.330Z,80.59
2018-04-25T06:03:52.535Z,80.79
2018-04-25T06:04:52.757Z,80.98
2018-04-25T06:05:54.584Z,80.88
2018-04-25T06:06:53.164Z,80.69
2018-04-25T06:07:53.383Z,80.88
2018-04-25T06:08:53.590Z,80.69
2018-04-25T06:09:53.817Z,81.07
2018-04-25T06:10:54.035Z,81.26
2018-04-25T06:11:54.238Z,80.30
2018-04-25T06:12:56.086Z,80.50
2018-04-25T06:13:54.666Z,80.50
2018-04-25T06:14:54.886Z,81.07
2018-04-25T06:15:55.101Z,80.88
2018-04-25T06:16:55.300Z,81.26
2018-04-25T06:17:55.562Z,80.69
2018-04-25T06:18:55.653Z,80.69
2018-04-25T06:19:55.863Z,80.63
2018-04-25T06:20:59.586Z,80.16
2018-04-25T06:21:56.330Z,81.02
2018-04-25T06:22:56.508Z,80.73
2018-04-25T06:23:56.723Z,80.16
2018-04-25T06:24:56.936Z,79.68
2018-04-25T06:25:57.150Z,79.87
2018-04-25T06:26:57.385Z,80.35
2018-04-25T06:27:57.581Z,80.16
2018-04-25T06:28:57.788Z,79.49
2018-04-25T06:29:59.588Z,79.49
2018-04-25T06:30:58.177Z,79.58
2018-04-25T06:31:58.406Z,79.49
2018-04-25T06:32:58.611Z,78.81
2018-04-25T06:33:58.830Z,79.39
2018-04-25T06:34:59.049Z,79.05
2018-04-25T06:35:59.257Z,78.38
2018-04-25T06:36:59.468Z,78.95
2018-04-25T06:37:59.690Z,78.76
2018-04-25T06:38:59.902Z,78.86
2018-04-25T06:40:02.091Z,78.66
2018-04-25T06:41:00.307Z,78.86
2018-04-25T06:42:00.503Z,78.22
2018-04-25T06:43:00.738Z,78.57
2018-04-25T06:44:00.949Z,77.65
2018-04-25T06:45:01.268Z,77.75
2018-04-25T06:46:01.397Z,77.46
2018-04-25T06:47:03.632Z,78.13
2018-04-25T06:48:09.583Z,77.46
2018-04-25T06:49:01.927Z,77.36
2018-04-25T06:50:02.144Z,77.46
2018-04-25T06:51:02.399Z,77.36
2018-04-25T06:52:02.587Z,77.84
2018-04-25T06:53:02.797Z,78.13
2018-04-25T06:54:03.023Z,78.03
2018-04-25T06:55:05.088Z,77.36
2018-04-25T06:56:03.423Z,78.70
2018-04-25T06:57:05.589Z,78.42
2018-04-25T06:58:03.809Z,78.70
2018-04-25T06:59:04.017Z,78.51
2018-04-25T07:00:04.232Z,77.36
2018-04-25T07:01:04.438Z,78.61
2018-04-25T07:02:04.663Z,77.46
2018-04-25T07:03:04.875Z,77.08
2018-04-25T07:04:05.083Z,76.50
2018-04-25T07:05:05.303Z,76.60
2018-04-25T07:06:05.512Z,76.89
2018-04-25T07:07:05.748Z,76.89
2018-04-25T07:08:05.852Z,76.06
2018-04-25T07:09:06.052Z,76.98
2018-04-25T07:10:06.267Z,77.75
2018-04-25T07:11:08.092Z,76.79
2018-04-25T07:12:06.674Z,76.89
2018-04-25T07:13:06.901Z,76.69
2018-04-25T07:14:07.187Z,76.98
2018-04-25T07:15:07.328Z,76.89
2018-04-25T07:16:07.543Z,76.69
2018-04-25T07:17:07.754Z,76.31
2018-04-25T07:18:07.971Z,76.02
2018-04-25T07:19:08.196Z,75.83
2018-04-25T07:20:08.409Z,75.73
2018-04-25T07:21:08.634Z,76.02
2018-04-25T07:22:12.597Z,76.50
2018-04-25T07:23:09.051Z,76.15
2018-04-25T07:24:09.269Z,74.33
2018-04-25T07:25:09.477Z,75.01
2018-04-25T07:26:11.585Z,75.45
2018-04-25T07:27:11.639Z,75.83
2018-04-25T07:28:10.084Z,75.68
2018-04-25T07:29:10.316Z,75.45
2018-04-25T07:30:10.423Z,75.29
2018-04-25T07:31:10.637Z,75.39
2018-04-25T07:32:12.640Z,75.45
2018-04-25T07:33:11.043Z,75.39
2018-04-25T07:34:11.266Z,75.64
2018-04-25T07:35:11.482Z,75.93
2018-04-25T07:36:13.598Z,75.68
2018-04-25T07:37:11.839Z,75.48
2018-04-25T07:38:12.068Z,76.82
2018-04-25T07:39:12.269Z,75.87
2018-04-25T07:40:12.486Z,75.87
2018-04-25T07:41:12.699Z,74.82
2018-04-25T07:42:12.910Z,75.10
2018-04-25T07:43:13.136Z,74.52
2018-04-25T07:44:13.377Z,74.43
2018-04-25T07:45:13.569Z,74.52
2018-04-25T07:46:13.780Z,74.43
2018-04-25T07:47:13.993Z,74.43
2018-04-25T07:48:14.206Z,74.43
2018-04-25T07:49:14.417Z,74.62
2018-04-25T07:50:14.625Z,74.52
2018-04-25T07:51:16.594Z,74.66
2018-04-25T07:52:16.678Z,73.70
2018-04-25T07:53:15.179Z,73.90
2018-04-25T07:54:15.405Z,73.51
2018-04-25T07:55:15.623Z,73.80
2018-04-25T07:56:15.835Z,73.03
2018-04-25T07:57:16.045Z,72.94
2018-04-25T07:58:16.255Z,73.65
2018-04-25T07:59:16.471Z,72.68
2018-04-25T08:00:16.681Z,72.30
2018-04-25T08:01:16.888Z,72.11
2018-04-25T08:02:17.103Z,72.11
2018-04-25T08:03:17.311Z,72.59
2018-04-25T08:04:17.531Z,72.78
2018-04-25T08:05:17.751Z,72.20
2018-04-25T08:06:17.955Z,71.15
2018-04-25T08:07:18.168Z,71.63
2018-04-25T08:08:20.101Z,72.36
2018-04-25T08:09:20.094Z,71.92
2018-04-25T08:10:18.686Z,71.50
2018-04-25T08:11:18.907Z,72.01
2018-04-25T08:12:19.170Z,71.34
2018-04-25T08:13:19.335Z,71.82
2018-04-25T08:14:19.554Z,71.15
2018-04-25T08:15:19.756Z,71.34
2018-04-25T08:16:19.973Z,71.05
2018-04-25T08:17:20.178Z,71.44
2018-04-25T08:18:20.387Z,71.28
2018-04-25T08:19:20.605Z,70.42
2018-04-25T08:20:20.812Z,69.24
2018-04-25T08:21:21.020Z,67.03
2018-04-25T08:22:21.237Z,66.71
2018-04-25T08:23:21.451Z,64.95
2018-04-25T08:24:21.676Z,65.05
2018-04-25T08:25:21.885Z,64.40
2018-04-25T08:26:22.100Z,62.64
2018-04-25T08:27:22.308Z,59.91
2018-04-25T08:28:24.093Z,59.37
2018-04-25T08:29:22.688Z,59.43
2018-04-25T08:30:22.921Z,57.34
2018-04-25T08:31:25.095Z,56.18
2018-04-25T08:32:23.316Z,57.12
2018-04-25T08:33:25.111Z,58.08
2018-04-25T08:34:23.736Z,58.11
2018-04-25T08:35:23.895Z,56.62
2018-04-25T08:36:24.108Z,55.33
2018-04-25T08:37:24.330Z,53.20
2018-04-25T08:38:28.090Z,52.43
2018-04-25T08:39:26.597Z,53.37
2018-04-25T08:40:24.816Z,52.89
2018-04-25T08:41:25.048Z,53.15
2018-04-25T08:42:26.242Z,54.93
2018-04-25T08:43:27.112Z,56.09
2018-04-25T08:44:25.710Z,56.05
2018-04-25T08:45:30.605Z,56.60
2018-04-25T08:46:26.076Z,57.25
2018-04-25T08:47:26.321Z,58.09
2018-04-25T08:48:28.129Z,59.79
2018-04-25T08:49:26.556Z,60.46
2018-04-25T08:50:26.772Z,61.78
2018-04-25T08:51:27.007Z,62.55
2018-04-25T08:52:27.227Z,62.16
2018-04-25T08:53:27.449Z,62.26
2018-04-25T08:54:27.697Z,62.84
2018-04-25T08:55:27.808Z,62.90
2018-04-25T08:56:28.032Z,62.81
2018-04-25T08:57:28.291Z,63.57
2018-04-25T08:58:28.467Z,63.76
2018-04-25T08:59:28.704Z,64.34
2018-04-25T09:00:28.932Z,63.96
2018-04-25T09:01:29.140Z,62.81
2018-04-25T09:02:29.364Z,62.58
2018-04-25T09:03:29.576Z,63.73
2018-04-25T09:04:29.787Z,62.29
2018-04-25T09:05:30.016Z,62.77
2018-04-25T09:06:30.280Z,62.96
2018-04-25T09:07:30.447Z,62.84
2018-04-25T09:08:30.673Z,64.31
2018-04-25T09:09:30.883Z,64.12
2018-04-25T09:10:31.103Z,64.56
2018-04-25T09:11:33.095Z,64.95
2018-04-25T09:12:31.430Z,65.62
2018-04-25T09:13:31.661Z,65.91
2018-04-25T09:14:31.883Z,65.91
2018-04-25T09:15:32.104Z,66.77
2018-04-25T09:16:32.310Z,66.19
2018-04-25T09:17:32.525Z,65.81
2018-04-25T09:18:34.602Z,66.00
2018-04-25T09:19:32.944Z,64.98
2018-04-25T09:20:33.153Z,64.92
2018-04-25T09:21:33.360Z,62.90
2018-04-25T09:22:33.570Z,62.23
2018-04-25T09:23:33.798Z,62.26
2018-04-25T09:24:34.047Z,61.78
2018-04-25T09:25:34.250Z,61.11
2018-04-25T09:26:34.480Z,61.01
2018-04-25T09:27:34.705Z,60.17
2018-04-25T09:28:34.920Z,60.94
2018-04-25T09:29:35.151Z,61.11
2018-04-25T09:30:35.377Z,62.16
2018-04-25T09:31:35.587Z,61.75
2018-04-25T09:32:35.808Z,61.91
2018-04-25T09:33:36.019Z,62.77
2018-04-25T09:34:36.229Z,63.45
2018-04-25T09:35:38.110Z,64.37
2018-04-25T09:36:36.578Z,64.56
2018-04-25T09:37:36.806Z,65.05
2018-04-25T09:38:37.017Z,65.23
2018-04-25T09:39:37.232Z,65.72
2018-04-25T09:40:37.453Z,65.68
2018-04-25T09:41:39.617Z,64.92
2018-04-25T09:42:37.837Z,66.06
2018-04-25T09:43:38.065Z,66.26
2018-04-25T09:44:38.279Z,66.45
2018-04-25T09:45:38.503Z,67.69
2018-04-25T09:46:38.729Z,66.83
2018-04-25T09:47:38.939Z,67.02
2018-04-25T09:48:39.163Z,67.57
2018-04-25T09:49:41.098Z,67.76
2018-04-25T09:50:39.554Z,68.05
2018-04-25T09:51:39.771Z,68.14
2018-04-25T09:52:39.985Z,68.24
2018-04-25T09:53:40.194Z,68.24
2018-04-25T09:54:40.416Z,68.62
2018-04-25T09:55:42.608Z,67.99
2018-04-25T09:56:40.811Z,68.37
2018-04-25T09:57:41.117Z,67.99
2018-04-25T09:58:41.249Z,67.16
2018-04-25T09:59:41.468Z,66.49
2018-04-25T10:00:45.621Z,66.33
2018-04-25T10:01:41.828Z,65.75
2018-04-25T10:02:42.056Z,65.56
2018-04-25T10:03:42.279Z,65.17
2018-04-25T10:04:42.492Z,65.36
2018-04-25T10:05:42.705Z,65.56
2018-04-25T10:06:42.930Z,64.98
2018-04-25T10:07:43.166Z,63.41
2018-04-25T10:08:43.364Z,63.41
2018-04-25T10:09:43.580Z,63.25
2018-04-25T10:10:43.889Z,62.68
2018-04-25T10:11:44.014Z,61.14
2018-04-25T10:12:44.222Z,61.74
2018-04-25T10:13:44.448Z,61.16
2018-04-25T10:14:44.689Z,59.97
2018-04-25T10:15:46.604Z,58.24
2018-04-25T10:16:45.072Z,56.90
2018-04-25T10:17:47.112Z,56.95
2018-04-25T10:18:45.473Z,55.88
2018-04-25T10:19:47.106Z,54.39
2018-04-25T10:20:46.779Z,51.83
2018-04-25T10:21:47.615Z,49.58
2018-04-25T10:22:48.112Z,50.89
2018-04-25T10:23:46.454Z,50.96
2018-04-25T10:24:47.688Z,50.23
2018-04-25T10:25:48.609Z,49.27
2018-04-25T10:26:48.601Z,50.47
2018-04-25T10:27:47.196Z,51.48
2018-04-25T10:28:48.447Z,52.23
2018-04-25T10:29:48.599Z,53.84
2018-04-25T10:30:47.863Z,53.96
2018-04-25T10:31:47.982Z,55.00
2018-04-25T10:32:48.208Z,54.80
2018-04-25T10:33:48.425Z,54.22
2018-04-25T10:34:48.649Z,54.61
2018-04-25T10:35:48.878Z,53.05
2018-04-25T10:36:50.092Z,50.76
2018-04-25T10:37:49.313Z,48.88
2018-04-25T10:38:49.612Z,48.88
2018-04-25T10:39:53.638Z,48.18
2018-04-25T10:40:49.998Z,49.12
2018-04-25T10:41:50.093Z,49.82
2018-04-25T10:42:52.125Z,50.47
2018-04-25T10:43:50.466Z,49.96
2018-04-25T10:44:50.683Z,51.58
2018-04-25T10:45:52.603Z,51.75
2018-04-25T10:46:52.616Z,54.13
2018-04-25T10:47:52.231Z,54.68
2018-04-25T10:48:51.367Z,55.04
2018-04-25T10:49:51.479Z,56.20
2018-04-25T10:50:51.692Z,57.03
2018-04-25T10:51:51.926Z,57.03
2018-04-25T10:52:56.103Z,57.22
2018-04-25T10:53:54.118Z,57.77
2018-04-25T10:54:54.106Z,58.73
2018-04-25T10:55:56.605Z,59.22
2018-04-25T10:56:52.816Z,59.34
2018-04-25T10:57:54.609Z,57.99
2018-04-25T10:58:53.205Z,58.86
2018-04-25T10:59:55.105Z,59.34
2018-04-25T11:00:53.572Z,59.89
2018-04-25T11:01:53.792Z,59.99
2018-04-25T11:02:54.032Z,60.72
2018-04-25T11:03:54.132Z,61.01
2018-04-25T11:04:55.368Z,62.55
2018-04-25T11:05:54.608Z,65.01
2018-04-25T11:06:54.824Z,67.22
2018-04-25T11:07:55.054Z,69.11
2018-04-25T11:08:55.275Z,72.47
2018-04-25T11:09:55.488Z,74.64
2018-04-25T11:10:55.714Z,75.60
2018-04-25T11:11:59.617Z,76.52
2018-04-25T11:12:56.093Z,77.58
2018-04-25T11:13:56.336Z,79.74
2018-04-25T11:14:56.533Z,80.37
2018-04-25T11:15:56.747Z,81.43
2018-04-25T11:16:56.969Z,82.96
2018-04-25T11:17:57.181Z,82.67
2018-04-25T11:18:57.409Z,82.96
2018-04-25T11:19:59.622Z,82.12
2018-04-25T11:20:57.838Z,78.75
2018-04-25T11:21:58.065Z,75.02
2018-04-25T11:22:58.295Z,72.74
2018-04-25T11:23:58.517Z,73.09
2018-04-25T11:25:00.690Z,72.77
2018-04-25T11:25:58.945Z,73.79
2018-04-25T11:26:59.181Z,74.08
2018-04-25T11:27:59.387Z,75.20
2018-04-25T11:29:01.113Z,74.90
2018-04-25T11:29:59.838Z,75.63
2018-04-25T11:31:00.054Z,77.42
2018-04-25T11:32:00.354Z,77.80
2018-04-25T11:33:00.506Z,79.11
2018-04-25T11:34:00.717Z,79.97
2018-04-25T11:35:00.991Z,80.60
2018-04-25T11:36:01.175Z,82.37
2018-04-25T11:37:01.380Z,81.85
2018-04-25T11:38:01.600Z,83.25
2018-04-25T11:39:01.828Z,81.90
2018-04-25T11:40:02.029Z,84.30
2018-04-25T11:41:02.252Z,84.88
2018-04-25T11:42:02.476Z,84.58
2018-04-25T11:43:02.696Z,84.63
2018-04-25T11:44:02.919Z,84.00
2018-04-25T11:45:05.109Z,81.84
2018-04-25T11:46:03.319Z,80.30
2018-04-25T11:47:03.566Z,81.54
2018-04-25T11:48:03.753Z,79.82
2018-04-25T11:49:03.961Z,80.01
2018-04-25T11:50:04.183Z,80.83
2018-04-25T11:51:04.396Z,80.93
2018-04-25T11:52:04.619Z,80.26
2018-04-25T11:53:04.835Z,80.26
2018-04-25T11:54:05.052Z,80.45
2018-04-25T11:55:05.273Z,81.70
2018-04-25T11:56:07.111Z,81.79
2018-04-25T11:57:07.639Z,81.46
2018-04-25T11:58:05.831Z,81.75
2018-04-25T11:59:07.613Z,81.56
2018-04-25T12:00:06.209Z,81.85
2018-04-25T12:01:06.432Z,82.38
2018-04-25T12:02:06.646Z,83.19
2018-04-25T12:03:06.872Z,83.29
2018-04-25T12:04:07.106Z,83.19
2018-04-25T12:05:07.343Z,82.76
2018-04-25T12:06:07.548Z,83.19
2018-04-25T12:07:09.652Z,83.91
2018-04-25T12:08:07.958Z,80.93
2018-04-25T12:09:10.112Z,80.07
2018-04-25T12:10:08.321Z,80.15
2018-04-25T12:11:10.113Z,78.84
2018-04-25T12:12:08.710Z,76.42
2018-04-25T12:13:08.991Z,74.38
2018-04-25T12:14:09.133Z,70.82
2018-04-25T12:15:09.343Z,68.99
2018-04-25T12:16:09.568Z,72.13
2018-04-25T12:17:09.801Z,71.55
2018-04-25T12:18:10.015Z,71.91
2018-04-25T12:19:10.255Z,72.02
2018-04-25T12:20:10.466Z,73.94
2018-04-25T12:21:10.696Z,75.10
2018-04-25T12:22:10.919Z,76.64
2018-04-25T12:23:11.181Z,76.92
2018-04-25T12:24:13.130Z,75.63
2018-04-25T12:25:13.126Z,74.96
2018-04-25T12:26:11.734Z,75.40
2018-04-25T12:27:11.946Z,75.60
2018-04-25T12:28:14.116Z,76.52
2018-04-25T12:29:14.119Z,77.67
2018-04-25T12:30:12.464Z,78.72
2018-04-25T12:31:12.684Z,78.63
2018-04-25T12:32:12.903Z,79.11
2018-04-25T12:33:13.123Z,79.88
2018-04-25T12:34:13.355Z,78.69
2018-04-25T12:35:16.115Z,78.40
2018-04-25T12:36:13.714Z,80.51
2018-04-25T12:37:13.934Z,80.26
2018-04-25T12:38:14.149Z,80.41
2018-04-25T12:39:16.112Z,80.70
2018-04-25T12:40:14.597Z,81.27
2018-04-25T12:41:14.793Z,82.04
2018-04-25T12:42:15.014Z,83.29
2018-04-25T12:43:15.231Z,82.04
2018-04-25T12:44:15.457Z,82.76
2018-04-25T12:45:15.672Z,81.71
2018-04-25T12:46:15.900Z,81.52
2018-04-25T12:47:16.189Z,82.90
2018-04-25T12:48:18.120Z,81.85
2018-04-25T12:49:16.462Z,83.00
2018-04-25T12:50:20.612Z,81.75
2018-04-25T12:51:16.821Z,82.04
2018-04-25T12:52:17.041Z,81.98
2018-04-25T12:53:17.263Z,80.74
2018-04-25T12:54:17.468Z,80.93
2018-04-25T12:55:17.701Z,78.72